createdAt,value
2023-02-16T00:00:06.341Z,65.62
2023-02-16T00:01:22.219Z,65.31
2023-02-16T00:02:26.660Z,65.61
2023-02-16T00:03:32.980Z,65.71
2023-02-16T00:04:37.606Z,65.55
2023-02-16T00:05:40.479Z,65.84
2023-02-16T00:06:46.017Z,65.47
2023-02-16T00:07:49.344Z,65.47
2023-02-16T00:08:54.467Z,65.42
2023-02-16T00:09:57.529Z,65.65
2023-02-16T00:11:19.524Z,65.56
2023-02-16T00:12:41.732Z,65.46
2023-02-16T00:13:48.912Z,65.57
2023-02-16T00:14:52.192Z,65.97
2023-02-16T00:15:55.581Z,65.94
2023-02-16T00:17:00.051Z,65.82
2023-02-16T00:18:05.240Z,65.90
2023-02-16T00:19:12.467Z,65.96
2023-02-16T00:20:19.322Z,66.29
2023-02-16T00:21:23.454Z,66.54
2023-02-16T00:22:27.508Z,66.34
2023-02-16T00:23:30.882Z,66.12
2023-02-16T00:24:34.142Z,66.17
2023-02-16T00:25:38.005Z,66.07
2023-02-16T00:26:43.384Z,65.96
2023-02-16T00:27:47.513Z,66.26
2023-02-16T00:28:52.901Z,66.77
2023-02-16T00:29:57.583Z,66.29
2023-02-16T00:31:01.679Z,66.35
2023-02-16T00:32:05.903Z,66.68
2023-02-16T00:33:16.937Z,66.44
2023-02-16T00:34:28.396Z,66.15
2023-02-16T00:35:33.568Z,66.27
2023-02-16T00:36:36.972Z,66.65
2023-02-16T00:37:40.286Z,66.73
2023-02-16T00:38:43.393Z,66.57
2023-02-16T00:39:46.533Z,66.82
2023-02-16T00:40:50.153Z,66.76
2023-02-16T00:41:54.484Z,66.54
2023-02-16T00:42:58.128Z,66.50
2023-02-16T00:44:02.028Z,66.81
2023-02-16T00:45:08.724Z,66.87
2023-02-16T00:46:14.764Z,67.16
2023-02-16T00:47:25.228Z,68.19
2023-02-16T00:48:28.534Z,67.49
2023-02-16T00:49:31.711Z,67.36
2023-02-16T00:50:35.703Z,67.57
2023-02-16T00:51:38.878Z,67.74
2023-02-16T00:52:43.570Z,67.76
2023-02-16T00:53:49.216Z,67.83
2023-02-16T00:54:51.376Z,67.67
2023-02-16T00:55:58.436Z,68.12
2023-02-16T00:57:01.890Z,67.64
2023-02-16T00:58:06.087Z,67.63
2023-02-16T00:59:14.390Z,67.48
2023-02-16T01:00:19.149Z,67.74
2023-02-16T01:01:24.494Z,67.82
2023-02-16T01:02:29.186Z,68.15
2023-02-16T01:03:32.366Z,68.02
2023-02-16T01:04:35.836Z,68.10
2023-02-16T01:05:39.283Z,68.36
2023-02-16T01:07:01.412Z,67.68
2023-02-16T01:08:24.613Z,67.74
2023-02-16T01:09:45.571Z,67.59
2023-02-16T01:11:07.766Z,67.90
2023-02-16T01:12:12.834Z,67.69
2023-02-16T01:13:16.270Z,67.64
2023-02-16T01:14:19.959Z,67.97
2023-02-16T01:15:25.134Z,67.54
2023-02-16T01:16:30.730Z,67.41
2023-02-16T01:17:36.554Z,67.76
2023-02-16T01:18:41.108Z,68.49
2023-02-16T01:19:43.960Z,69.19
2023-02-16T01:20:49.104Z,68.22
2023-02-16T01:21:52.644Z,68.17
2023-02-16T01:22:56.557Z,69.17
2023-02-16T01:23:59.980Z,70.39
2023-02-16T01:25:03.891Z,71.25
2023-02-16T01:26:08.392Z,69.41
2023-02-16T01:27:14.817Z,69.28
2023-02-16T01:28:21.920Z,69.06
2023-02-16T01:29:24.578Z,68.65
2023-02-16T01:30:28.561Z,68.96
2023-02-16T01:31:33.286Z,68.96
2023-02-16T01:32:37.391Z,69.05
2023-02-16T01:33:43.126Z,69.38
2023-02-16T01:34:46.480Z,69.68
2023-02-16T01:35:50.736Z,69.08
2023-02-16T01:36:54.235Z,69.72
2023-02-16T01:37:57.536Z,69.53
2023-02-16T01:39:00.406Z,69.57
2023-02-16T01:40:07.557Z,69.35
2023-02-16T01:41:32.275Z,69.68
2023-02-16T01:42:55.539Z,70.07
2023-02-16T01:44:18.988Z,69.73
2023-02-16T01:45:24.988Z,69.40
2023-02-16T01:46:35.726Z,69.14
2023-02-16T01:47:41.810Z,69.52
2023-02-16T01:48:47.108Z,69.81
2023-02-16T01:49:49.883Z,70.22
2023-02-16T01:50:58.922Z,70.21
2023-02-16T01:52:04.518Z,70.45
2023-02-16T01:53:10.887Z,70.30
2023-02-16T01:54:20.806Z,70.02
2023-02-16T01:55:29.133Z,70.12
2023-02-16T01:56:42.995Z,69.96
2023-02-16T01:57:49.416Z,70.10
2023-02-16T01:58:56.243Z,69.60
2023-02-16T02:00:01.426Z,69.71
2023-02-16T02:01:08.280Z,69.76
2023-02-16T02:02:17.604Z,69.64
2023-02-16T02:03:43.478Z,69.93
2023-02-16T02:05:13.614Z,69.92
2023-02-16T02:06:18.909Z,69.79
2023-02-16T02:07:23.449Z,69.69
2023-02-16T02:08:31.768Z,69.96
2023-02-16T02:09:37.564Z,69.66
2023-02-16T02:10:53.402Z,70.04
2023-02-16T02:12:04.413Z,70.35
2023-02-16T02:13:23.706Z,70.21
2023-02-16T02:14:29.610Z,69.98
2023-02-16T02:15:35.626Z,70.13
2023-02-16T02:16:39.965Z,70.47
2023-02-16T02:17:42.319Z,70.68
2023-02-16T02:18:45.584Z,71.06
2023-02-16T02:19:51.023Z,70.59
2023-02-16T02:21:31.375Z,70.11
2023-02-16T02:23:08.079Z,69.73
2023-02-16T02:24:27.223Z,70.07
2023-02-16T02:25:50.611Z,69.95
2023-02-16T02:26:56.126Z,70.20
2023-02-16T02:28:01.493Z,70.15
2023-02-16T02:29:10.000Z,70.06
2023-02-16T02:30:32.732Z,70.34
2023-02-16T02:31:51.979Z,70.83
2023-02-16T02:32:59.267Z,70.74
2023-02-16T02:34:08.734Z,70.60
2023-02-16T02:35:26.169Z,69.96
2023-02-16T02:36:35.067Z,69.91
2023-02-16T02:37:45.779Z,70.46
2023-02-16T02:39:10.910Z,69.81
2023-02-16T02:40:23.834Z,70.22
2023-02-16T02:41:33.583Z,70.23
2023-02-16T02:42:40.119Z,70.15
2023-02-16T02:43:51.020Z,70.28
2023-02-16T02:44:56.135Z,70.28
2023-02-16T02:46:02.845Z,70.32
2023-02-16T02:47:06.453Z,69.98
2023-02-16T02:48:10.542Z,70.06
2023-02-16T02:49:14.824Z,70.70
2023-02-16T02:50:39.545Z,71.77
2023-02-16T02:51:45.238Z,71.91
2023-02-16T02:52:49.060Z,71.37
2023-02-16T02:54:28.072Z,71.78
2023-02-16T02:55:53.606Z,72.09
2023-02-16T02:57:20.297Z,72.36
2023-02-16T02:58:46.061Z,72.15
2023-02-16T03:00:10.248Z,73.08
2023-02-16T03:01:15.060Z,72.22
2023-02-16T03:02:19.937Z,73.52
2023-02-16T03:03:29.519Z,73.25
2023-02-16T03:04:35.330Z,73.28
2023-02-16T03:05:40.619Z,73.04
2023-02-16T03:06:45.060Z,73.16
2023-02-16T03:07:49.164Z,73.83
2023-02-16T03:08:54.610Z,72.42
2023-02-16T03:09:59.235Z,72.14
2023-02-16T03:11:23.321Z,73.02
2023-02-16T03:12:46.561Z,72.07
2023-02-16T03:13:53.785Z,72.81
2023-02-16T03:15:01.092Z,72.43
2023-02-16T03:16:06.801Z,73.07
2023-02-16T03:17:31.713Z,72.81
2023-02-16T03:18:54.588Z,73.36
2023-02-16T03:20:18.390Z,72.00
2023-02-16T03:21:42.074Z,72.05
2023-02-16T03:23:03.164Z,73.74
2023-02-16T03:24:27.098Z,73.61
2023-02-16T03:25:49.813Z,75.20
2023-02-16T03:27:11.817Z,75.71
2023-02-16T03:28:33.806Z,75.65
2023-02-16T03:29:37.841Z,76.78
2023-02-16T03:30:45.113Z,76.55
2023-02-16T03:31:49.353Z,77.37
2023-02-16T03:32:53.373Z,78.80
2023-02-16T03:33:56.973Z,79.23
2023-02-16T03:35:03.719Z,79.00
2023-02-16T03:36:07.758Z,78.67
2023-02-16T03:37:10.815Z,79.12
2023-02-16T03:38:17.409Z,79.62
2023-02-16T03:39:22.571Z,79.76
2023-02-16T03:40:31.523Z,79.78
2023-02-16T03:41:35.709Z,79.46
2023-02-16T03:42:39.021Z,79.99
2023-02-16T03:43:42.093Z,77.60
2023-02-16T03:44:45.230Z,77.77
2023-02-16T03:45:47.769Z,76.76
2023-02-16T03:46:51.463Z,75.93
2023-02-16T03:47:57.159Z,76.72
2023-02-16T03:49:02.686Z,75.69
2023-02-16T03:50:06.860Z,75.50
2023-02-16T03:51:10.495Z,75.99
2023-02-16T03:52:13.283Z,75.30
2023-02-16T03:53:17.507Z,76.04
2023-02-16T03:54:20.476Z,76.52
2023-02-16T03:55:24.667Z,76.81
2023-02-16T03:56:28.332Z,77.13
2023-02-16T03:57:31.513Z,75.95
2023-02-16T03:58:35.147Z,76.38
2023-02-16T03:59:40.351Z,77.32
2023-02-16T04:00:44.048Z,77.27
2023-02-16T04:01:47.665Z,77.28
2023-02-16T04:02:51.245Z,77.97
2023-02-16T04:03:54.367Z,78.03
2023-02-16T04:04:59.823Z,78.12
2023-02-16T04:06:03.333Z,77.74
2023-02-16T04:07:06.505Z,78.13
2023-02-16T04:08:10.396Z,78.05
2023-02-16T04:09:15.508Z,77.99
2023-02-16T04:10:18.183Z,77.66
2023-02-16T04:11:40.583Z,76.41
2023-02-16T04:12:44.618Z,75.15
2023-02-16T04:13:47.385Z,77.05
2023-02-16T04:14:50.798Z,76.80
2023-02-16T04:15:56.074Z,77.85
2023-02-16T04:16:59.474Z,77.84
2023-02-16T04:18:02.883Z,77.00
2023-02-16T04:19:08.260Z,76.84
2023-02-16T04:20:12.284Z,76.09
2023-02-16T04:21:17.149Z,77.62
2023-02-16T04:22:21.940Z,76.94
2023-02-16T04:23:24.276Z,76.81
2023-02-16T04:24:28.822Z,76.76
2023-02-16T04:25:31.490Z,77.42
2023-02-16T04:26:34.369Z,78.31
2023-02-16T04:27:37.663Z,78.29
2023-02-16T04:28:42.530Z,77.14
2023-02-16T04:29:46.232Z,76.96
2023-02-16T04:30:52.843Z,77.24
2023-02-16T04:31:57.132Z,77.79
2023-02-16T04:33:00.415Z,77.12
2023-02-16T04:34:04.595Z,76.74
2023-02-16T04:35:08.978Z,77.02
2023-02-16T04:36:12.475Z,76.68
2023-02-16T04:37:15.046Z,76.93
2023-02-16T04:38:19.307Z,78.13
2023-02-16T04:39:22.427Z,77.56
2023-02-16T04:40:25.354Z,77.00
2023-02-16T04:41:27.721Z,77.49
2023-02-16T04:42:31.203Z,78.23
2023-02-16T04:43:35.243Z,77.79
2023-02-16T04:44:39.477Z,77.39
2023-02-16T04:45:42.919Z,77.33
2023-02-16T04:46:46.698Z,77.52
2023-02-16T04:47:50.140Z,76.10
2023-02-16T04:48:53.602Z,77.79
2023-02-16T04:49:56.904Z,77.89
2023-02-16T04:51:02.364Z,76.57
2023-02-16T04:52:06.726Z,76.66
2023-02-16T04:53:10.127Z,76.42
2023-02-16T04:54:15.621Z,75.75
2023-02-16T04:55:18.602Z,75.95
2023-02-16T04:56:24.611Z,76.24
2023-02-16T04:57:27.174Z,76.15
2023-02-16T04:58:36.634Z,77.35
2023-02-16T04:59:39.930Z,76.53
2023-02-16T05:00:43.864Z,76.37
2023-02-16T05:01:47.595Z,78.28
2023-02-16T05:02:51.063Z,77.50
2023-02-16T05:03:54.897Z,77.17
2023-02-16T05:04:57.130Z,76.86
2023-02-16T05:06:00.661Z,78.58
2023-02-16T05:07:03.733Z,77.86
2023-02-16T05:08:06.303Z,78.28
2023-02-16T05:09:09.889Z,78.40
2023-02-16T05:10:13.570Z,79.13
2023-02-16T05:11:34.362Z,79.32
2023-02-16T05:12:56.148Z,79.34
2023-02-16T05:14:17.934Z,77.95
2023-02-16T05:15:21.751Z,77.19
2023-02-16T05:16:25.670Z,75.96
2023-02-16T05:17:28.150Z,74.69
2023-02-16T05:18:34.199Z,74.36
2023-02-16T05:19:40.934Z,74.96
2023-02-16T05:21:02.817Z,75.13
2023-02-16T05:22:06.269Z,76.30
2023-02-16T05:23:10.466Z,76.09
2023-02-16T05:24:13.705Z,77.57
2023-02-16T05:25:15.970Z,79.05
2023-02-16T05:26:19.461Z,78.93
2023-02-16T05:27:26.728Z,78.73
2023-02-16T05:28:30.899Z,78.60
2023-02-16T05:29:34.679Z,79.77
2023-02-16T05:30:44.883Z,80.05
2023-02-16T05:31:47.719Z,80.78
2023-02-16T05:32:52.291Z,80.35
2023-02-16T05:33:56.100Z,80.39
2023-02-16T05:34:59.401Z,79.27
2023-02-16T05:36:02.290Z,79.38
2023-02-16T05:37:05.616Z,78.94
2023-02-16T05:38:08.238Z,79.69
2023-02-16T05:39:11.750Z,79.69
2023-02-16T05:40:15.069Z,78.62
2023-02-16T05:41:28.473Z,78.50
2023-02-16T05:42:31.884Z,78.76
2023-02-16T05:43:35.440Z,79.64
2023-02-16T05:44:38.302Z,79.96
2023-02-16T05:45:42.610Z,80.86
2023-02-16T05:46:46.930Z,80.64
2023-02-16T05:47:50.445Z,81.10
2023-02-16T05:48:53.750Z,80.67
2023-02-16T05:49:57.037Z,81.97
2023-02-16T05:51:00.354Z,81.45
2023-02-16T05:52:04.569Z,81.82
2023-02-16T05:53:07.615Z,82.19
2023-02-16T05:54:14.922Z,82.50
2023-02-16T05:55:20.099Z,83.23
2023-02-16T05:56:24.250Z,82.97
2023-02-16T05:57:26.599Z,81.98
2023-02-16T05:58:29.922Z,81.84
2023-02-16T05:59:33.179Z,81.26
2023-02-16T06:00:38.576Z,81.67
2023-02-16T06:01:41.355Z,82.88
2023-02-16T06:02:44.688Z,82.91
2023-02-16T06:03:48.623Z,81.84
2023-02-16T06:04:51.894Z,82.97
2023-02-16T06:06:00.512Z,82.57
2023-02-16T06:07:06.492Z,82.31
2023-02-16T06:08:10.411Z,81.44
2023-02-16T06:09:13.085Z,82.38
2023-02-16T06:10:17.836Z,81.46
2023-02-16T06:11:36.322Z,82.43
2023-02-16T06:12:44.804Z,81.39
2023-02-16T06:13:49.360Z,82.00
2023-02-16T06:14:56.196Z,81.11
2023-02-16T06:15:59.969Z,80.56
2023-02-16T06:17:03.217Z,80.80
2023-02-16T06:18:06.297Z,80.87
2023-02-16T06:19:10.350Z,80.37
2023-02-16T06:20:13.945Z,80.25
2023-02-16T06:21:17.341Z,80.84
2023-02-16T06:22:20.000Z,80.52
2023-02-16T06:23:23.295Z,80.90
2023-02-16T06:24:26.711Z,79.81
2023-02-16T06:25:30.107Z,80.00
2023-02-16T06:26:34.369Z,78.83
2023-02-16T06:27:37.628Z,78.87
2023-02-16T06:28:40.987Z,78.25
2023-02-16T06:29:44.545Z,78.47
2023-02-16T06:30:47.962Z,78.81
2023-02-16T06:31:51.439Z,79.34
2023-02-16T06:32:54.523Z,78.47
2023-02-16T06:33:57.945Z,78.08
2023-02-16T06:35:01.340Z,78.26
2023-02-16T06:36:05.514Z,79.80
2023-02-16T06:37:07.936Z,79.50
2023-02-16T06:38:11.540Z,79.50
2023-02-16T06:39:16.819Z,79.09
2023-02-16T06:40:20.537Z,79.55
2023-02-16T06:41:34.696Z,79.80
2023-02-16T06:42:38.609Z,79.25
2023-02-16T06:43:42.127Z,79.91
2023-02-16T06:44:45.421Z,78.63
2023-02-16T06:45:49.802Z,79.32
2023-02-16T06:46:53.634Z,78.94
2023-02-16T06:47:57.277Z,79.97
2023-02-16T06:49:00.271Z,78.65
2023-02-16T06:50:06.939Z,78.89
2023-02-16T06:51:10.414Z,78.91
2023-02-16T06:52:13.638Z,78.23
2023-02-16T06:53:17.204Z,78.69
2023-02-16T06:54:20.395Z,79.11
2023-02-16T06:55:23.637Z,79.71
2023-02-16T06:56:27.196Z,79.79
2023-02-16T06:57:29.344Z,80.49
2023-02-16T06:58:32.546Z,80.40
2023-02-16T06:59:35.310Z,80.63
2023-02-16T07:00:40.636Z,80.12
2023-02-16T07:01:45.312Z,79.07
2023-02-16T07:02:48.064Z,79.41
2023-02-16T07:03:51.667Z,79.71
2023-02-16T07:04:55.033Z,80.30
2023-02-16T07:06:01.257Z,81.17
2023-02-16T07:07:05.244Z,80.62
2023-02-16T07:08:09.104Z,80.60
2023-02-16T07:09:13.039Z,80.44
2023-02-16T07:10:18.829Z,80.20
2023-02-16T07:11:23.403Z,80.85
2023-02-16T07:12:26.767Z,80.85
2023-02-16T07:13:33.198Z,80.47
2023-02-16T07:14:36.922Z,79.27
2023-02-16T07:15:41.569Z,78.96
2023-02-16T07:16:46.977Z,79.79
2023-02-16T07:17:51.330Z,80.11
2023-02-16T07:18:55.281Z,80.89
2023-02-16T07:20:00.007Z,81.28
2023-02-16T07:21:03.755Z,81.02
2023-02-16T07:22:07.471Z,81.38
2023-02-16T07:23:10.000Z,81.85
2023-02-16T07:24:12.843Z,81.94
2023-02-16T07:25:16.257Z,83.03
2023-02-16T07:26:20.070Z,81.92
2023-02-16T07:27:24.208Z,81.17
2023-02-16T07:28:27.916Z,80.80
2023-02-16T07:29:31.423Z,80.12
2023-02-16T07:30:34.688Z,80.12
2023-02-16T07:31:40.818Z,79.92
2023-02-16T07:32:44.443Z,79.98
2023-02-16T07:33:48.164Z,80.70
2023-02-16T07:34:51.491Z,80.23
2023-02-16T07:35:55.064Z,80.19
2023-02-16T07:37:00.009Z,80.00
2023-02-16T07:38:03.766Z,79.77
2023-02-16T07:39:08.607Z,79.69
2023-02-16T07:40:12.094Z,79.61
2023-02-16T07:41:18.431Z,79.75
2023-02-16T07:42:25.267Z,79.73
2023-02-16T07:43:28.401Z,80.07
2023-02-16T07:44:31.530Z,80.68
2023-02-16T07:45:36.890Z,80.12
2023-02-16T07:46:41.286Z,79.79
2023-02-16T07:47:43.745Z,79.03
2023-02-16T07:48:49.700Z,79.23
2023-02-16T07:49:53.473Z,78.69
2023-02-16T07:50:56.974Z,78.73
2023-02-16T07:52:00.377Z,79.45
2023-02-16T07:53:04.300Z,79.32
2023-02-16T07:54:07.807Z,79.29
2023-02-16T07:55:12.044Z,78.46
2023-02-16T07:56:19.828Z,78.65
2023-02-16T07:57:26.573Z,78.44
2023-02-16T07:58:30.105Z,79.21
2023-02-16T07:59:35.564Z,78.44
2023-02-16T08:00:39.289Z,77.53
2023-02-16T08:01:43.193Z,77.74
2023-02-16T08:02:46.985Z,77.16
2023-02-16T08:03:50.733Z,76.99
2023-02-16T08:04:54.796Z,76.57
2023-02-16T08:06:03.289Z,76.26
2023-02-16T08:07:08.769Z,77.45
2023-02-16T08:08:11.559Z,76.61
2023-02-16T08:09:14.631Z,75.80
2023-02-16T08:10:19.169Z,75.28
2023-02-16T08:11:24.356Z,76.98
2023-02-16T08:12:28.643Z,77.44
2023-02-16T08:13:31.889Z,76.66
2023-02-16T08:14:35.153Z,77.21
2023-02-16T08:15:37.553Z,76.75
2023-02-16T08:16:39.962Z,75.73
2023-02-16T08:17:44.282Z,74.99
2023-02-16T08:18:47.955Z,74.67
2023-02-16T08:19:53.548Z,74.02
2023-02-16T08:21:04.219Z,73.50
2023-02-16T08:22:03.901Z,73.65
2023-02-16T08:23:08.335Z,74.35
2023-02-16T08:24:13.106Z,75.27
2023-02-16T08:25:16.715Z,75.29
2023-02-16T08:26:20.429Z,74.23
2023-02-16T08:27:22.784Z,73.47
2023-02-16T08:28:27.319Z,72.70
2023-02-16T08:29:30.909Z,72.75
2023-02-16T08:30:34.379Z,73.17
2023-02-16T08:31:37.695Z,71.41
2023-02-16T08:32:41.049Z,72.05
2023-02-16T08:34:04.955Z,72.15
2023-02-16T08:35:09.154Z,71.85
2023-02-16T08:36:23.205Z,71.99
2023-02-16T08:37:26.186Z,71.85
2023-02-16T08:38:28.952Z,72.20
2023-02-16T08:39:34.559Z,71.40
2023-02-16T08:40:37.918Z,71.99
2023-02-16T08:41:42.790Z,72.93
2023-02-16T08:42:47.084Z,72.82
2023-02-16T08:43:49.922Z,72.53
2023-02-16T08:44:53.793Z,71.78
2023-02-16T08:45:57.893Z,72.29
2023-02-16T08:47:01.805Z,71.14
2023-02-16T08:48:06.049Z,71.43
2023-02-16T08:49:09.846Z,70.98
2023-02-16T08:50:13.141Z,71.13
2023-02-16T08:51:18.755Z,70.24
2023-02-16T08:52:22.483Z,70.10
2023-02-16T08:53:27.733Z,70.62
2023-02-16T08:54:34.534Z,70.20
2023-02-16T08:55:38.818Z,71.83
2023-02-16T08:56:43.563Z,71.23
2023-02-16T08:57:46.762Z,71.32
2023-02-16T08:58:50.298Z,70.61
2023-02-16T08:59:56.697Z,69.74
2023-02-16T09:01:01.845Z,69.36
2023-02-16T09:02:06.823Z,69.27
2023-02-16T09:03:10.297Z,70.46
2023-02-16T09:04:14.280Z,69.23
2023-02-16T09:05:17.605Z,69.31
2023-02-16T09:06:22.992Z,68.72
2023-02-16T09:07:25.626Z,70.11
2023-02-16T09:08:29.018Z,69.36
2023-02-16T09:09:33.134Z,69.34
2023-02-16T09:10:36.625Z,69.65
2023-02-16T09:11:40.169Z,69.09
2023-02-16T09:12:44.614Z,70.27
2023-02-16T09:13:48.433Z,70.95
2023-02-16T09:14:53.413Z,71.23
2023-02-16T09:15:58.262Z,70.29
2023-02-16T09:17:01.518Z,70.09
2023-02-16T09:18:04.434Z,68.77
2023-02-16T09:19:07.302Z,69.59
2023-02-16T09:20:13.213Z,69.03
2023-02-16T09:21:18.441Z,68.42
2023-02-16T09:22:22.206Z,68.80
2023-02-16T09:23:27.311Z,67.53
2023-02-16T09:24:32.987Z,68.59
2023-02-16T09:25:55.601Z,68.86
2023-02-16T09:27:00.125Z,68.31
2023-02-16T09:28:04.078Z,68.62
2023-02-16T09:29:07.618Z,68.85
2023-02-16T09:30:12.148Z,66.62
2023-02-16T09:31:17.583Z,66.03
2023-02-16T09:32:20.288Z,66.63
2023-02-16T09:33:23.409Z,67.70
2023-02-16T09:34:28.198Z,68.70
2023-02-16T09:35:30.493Z,68.79
2023-02-16T09:36:33.678Z,67.77
2023-02-16T09:37:37.085Z,67.91
2023-02-16T09:38:40.492Z,68.05
2023-02-16T09:39:45.350Z,67.46
2023-02-16T09:40:49.745Z,68.70
2023-02-16T09:42:06.446Z,69.16
2023-02-16T09:43:12.148Z,69.72
2023-02-16T09:44:25.265Z,68.22
2023-02-16T09:45:30.403Z,66.72
2023-02-16T09:46:33.569Z,66.39
2023-02-16T09:47:39.588Z,66.55
2023-02-16T09:48:45.494Z,67.01
2023-02-16T09:49:49.888Z,65.85
2023-02-16T09:50:55.104Z,64.72
2023-02-16T09:52:12.053Z,65.00
2023-02-16T09:53:19.041Z,65.73
2023-02-16T09:54:27.204Z,65.75
2023-02-16T09:55:46.580Z,64.40
2023-02-16T09:56:52.653Z,65.02
2023-02-16T09:57:57.778Z,64.36
2023-02-16T09:59:05.765Z,63.55
2023-02-16T10:00:27.454Z,64.47
2023-02-16T10:01:40.500Z,64.25
2023-02-16T10:02:51.040Z,64.17
2023-02-16T10:03:57.284Z,64.04
2023-02-16T10:05:14.739Z,65.36
2023-02-16T10:06:19.023Z,64.76
2023-02-16T10:07:27.445Z,65.15
2023-02-16T10:08:32.940Z,64.14
2023-02-16T10:09:36.622Z,65.26
2023-02-16T10:10:58.224Z,64.12
2023-02-16T10:12:06.141Z,63.91
2023-02-16T10:14:33.103Z,64.26
2023-02-16T10:15:38.166Z,64.08
2023-02-16T10:16:42.273Z,63.46
2023-02-16T10:17:47.592Z,64.29
2023-02-16T10:18:52.438Z,64.69
2023-02-16T10:19:57.905Z,64.52
2023-02-16T10:21:03.382Z,65.28
2023-02-16T10:22:09.000Z,65.14
2023-02-16T10:23:19.536Z,65.12
2023-02-16T10:24:23.838Z,65.36
2023-02-16T10:25:31.934Z,64.62
2023-02-16T10:26:37.219Z,63.77
2023-02-16T10:27:42.415Z,63.67
2023-02-16T10:28:54.994Z,64.63
2023-02-16T10:29:59.637Z,64.23
2023-02-16T10:31:09.484Z,62.79
2023-02-16T10:32:16.581Z,63.19
2023-02-16T10:33:24.988Z,63.28
2023-02-16T10:34:32.143Z,62.96
2023-02-16T10:35:52.267Z,63.66
2023-02-16T10:36:57.429Z,63.69
2023-02-16T10:38:10.039Z,64.08
2023-02-16T10:39:15.210Z,62.96
2023-02-16T10:40:23.212Z,62.85
2023-02-16T10:41:36.619Z,62.27
2023-02-16T10:42:46.922Z,62.68
2023-02-16T10:44:09.907Z,64.79
2023-02-16T10:45:18.484Z,64.51
2023-02-16T10:46:26.087Z,64.03
2023-02-16T10:47:35.542Z,64.91
2023-02-16T10:48:40.145Z,63.17
2023-02-16T10:49:45.237Z,61.86
2023-02-16T10:50:58.185Z,61.02
2023-02-16T10:52:02.900Z,61.32
2023-02-16T10:53:09.668Z,62.43
2023-02-16T10:54:13.786Z,62.88
2023-02-16T10:55:18.565Z,62.59
2023-02-16T10:56:23.930Z,63.23
2023-02-16T10:57:29.267Z,62.71
2023-02-16T10:58:36.988Z,62.58
2023-02-16T10:59:41.544Z,62.51
2023-02-16T11:00:58.011Z,61.63
2023-02-16T11:02:02.137Z,62.21
2023-02-16T11:03:07.680Z,61.59
2023-02-16T11:04:13.180Z,61.53
2023-02-16T11:05:34.066Z,61.39
2023-02-16T11:06:37.466Z,61.84
2023-02-16T11:07:43.651Z,61.90
2023-02-16T11:08:47.609Z,62.12
2023-02-16T11:09:55.725Z,62.04
2023-02-16T11:11:01.307Z,60.86
2023-02-16T11:12:19.222Z,60.38
2023-02-16T11:13:29.280Z,61.11
2023-02-16T11:14:33.249Z,61.67
2023-02-16T11:15:37.873Z,62.42
2023-02-16T11:16:42.072Z,62.40
2023-02-16T11:17:53.448Z,61.64
2023-02-16T11:18:58.738Z,61.29
2023-02-16T11:20:04.960Z,60.84
2023-02-16T11:21:09.512Z,60.32
2023-02-16T11:22:14.685Z,61.40
2023-02-16T11:23:20.610Z,61.69
2023-02-16T11:24:34.767Z,60.50
2023-02-16T11:25:38.787Z,60.48
2023-02-16T11:26:42.316Z,60.29
2023-02-16T11:27:52.223Z,60.98
2023-02-16T11:28:57.429Z,60.76
2023-02-16T11:30:18.684Z,60.29
2023-02-16T11:31:24.032Z,61.71
2023-02-16T11:32:28.849Z,62.48
2023-02-16T11:33:32.553Z,60.91
2023-02-16T11:34:37.423Z,60.72
2023-02-16T11:35:42.953Z,59.68
2023-02-16T11:36:47.772Z,59.81
2023-02-16T11:37:50.975Z,60.04
2023-02-16T11:39:01.206Z,59.73
2023-02-16T11:40:06.545Z,59.90
2023-02-16T11:41:10.978Z,59.37
2023-02-16T11:42:22.873Z,58.99
2023-02-16T11:43:36.810Z,58.52
2023-02-16T11:44:42.832Z,60.14
2023-02-16T11:45:47.268Z,60.37
2023-02-16T11:46:49.505Z,60.22
2023-02-16T11:47:56.438Z,60.88
2023-02-16T11:49:02.152Z,60.88
2023-02-16T11:50:06.279Z,61.14
2023-02-16T11:51:11.464Z,60.28
2023-02-16T11:52:24.687Z,60.79
2023-02-16T11:53:29.325Z,60.24
2023-02-16T11:54:33.551Z,61.09
2023-02-16T11:55:39.097Z,60.17
2023-02-16T11:56:42.269Z,60.30
2023-02-16T11:57:45.738Z,61.17
2023-02-16T11:58:55.125Z,61.24
2023-02-16T12:00:00.128Z,61.49
2023-02-16T12:01:21.656Z,62.50
2023-02-16T12:02:25.990Z,61.81
2023-02-16T12:03:41.620Z,62.32
2023-02-16T12:04:46.953Z,61.15
2023-02-16T12:06:02.316Z,61.23
2023-02-16T12:07:16.970Z,62.46
2023-02-16T12:08:41.227Z,63.17
2023-02-16T12:09:48.316Z,63.07
2023-02-16T12:11:00.098Z,63.00
2023-02-16T12:12:08.081Z,62.83
2023-02-16T12:13:16.314Z,62.49
2023-02-16T12:14:38.326Z,62.33
2023-02-16T12:15:48.678Z,62.63
2023-02-16T12:17:10.359Z,62.61
2023-02-16T12:18:21.692Z,63.04
2023-02-16T12:19:44.788Z,62.31
2023-02-16T12:20:52.756Z,62.46
2023-02-16T12:21:58.112Z,61.83
2023-02-16T12:23:12.479Z,62.46
2023-02-16T12:24:33.019Z,63.37
2023-02-16T12:25:44.056Z,63.57
2023-02-16T12:26:58.925Z,64.17
2023-02-16T12:28:05.463Z,64.46
2023-02-16T12:29:12.554Z,64.93
2023-02-16T12:30:24.840Z,65.45
2023-02-16T12:31:35.161Z,66.08
2023-02-16T12:32:57.493Z,66.67
2023-02-16T12:34:05.706Z,65.54
2023-02-16T12:35:10.569Z,66.19
2023-02-16T12:36:17.295Z,66.04
2023-02-16T12:37:27.955Z,66.33
2023-02-16T12:38:40.493Z,66.74
2023-02-16T12:39:46.016Z,67.31
2023-02-16T12:41:00.266Z,67.40
2023-02-16T12:42:09.344Z,66.25
2023-02-16T12:43:30.864Z,67.29
2023-02-16T12:44:38.155Z,66.97
2023-02-16T12:45:42.695Z,67.93
2023-02-16T12:46:47.973Z,67.72
2023-02-16T12:47:54.006Z,68.00
2023-02-16T12:49:05.412Z,68.03
2023-02-16T12:50:22.916Z,67.86
2023-02-16T12:51:30.176Z,68.54
2023-02-16T12:52:41.406Z,68.72
2023-02-16T12:54:02.910Z,68.71
2023-02-16T12:55:12.637Z,68.44
2023-02-16T12:56:23.898Z,68.26
2023-02-16T12:57:30.554Z,68.45
2023-02-16T12:58:35.404Z,68.44
2023-02-16T12:59:46.517Z,68.22
2023-02-16T13:00:54.054Z,68.11
2023-02-16T13:01:59.388Z,67.89
2023-02-16T13:03:22.018Z,68.04
2023-02-16T13:04:27.395Z,67.34
2023-02-16T13:05:33.996Z,67.74
2023-02-16T13:06:40.153Z,67.88
2023-02-16T13:07:47.978Z,68.12
2023-02-16T13:08:57.712Z,67.81
2023-02-16T13:10:19.373Z,68.57
2023-02-16T13:11:23.853Z,68.56
2023-02-16T13:12:28.275Z,68.63
2023-02-16T13:13:34.736Z,68.88
2023-02-16T13:14:40.838Z,69.44
2023-02-16T13:15:49.782Z,69.09
2023-02-16T13:17:01.677Z,69.44
2023-02-16T13:18:07.013Z,69.88
2023-02-16T13:19:15.010Z,70.20
2023-02-16T13:20:21.395Z,69.72
2023-02-16T13:21:33.376Z,69.46
2023-02-16T13:22:38.467Z,69.74
2023-02-16T13:23:55.976Z,69.94
2023-02-16T13:25:20.260Z,70.00
2023-02-16T13:26:33.640Z,70.43
2023-02-16T13:27:44.722Z,70.24
2023-02-16T13:28:56.286Z,70.54
2023-02-16T13:30:06.170Z,70.25
2023-02-16T13:31:23.564Z,70.35
2023-02-16T13:32:29.022Z,70.86
2023-02-16T13:33:39.354Z,70.48
2023-02-16T13:34:59.948Z,71.20
2023-02-16T13:36:15.255Z,70.93
2023-02-16T13:37:21.593Z,70.98
2023-02-16T13:38:26.768Z,70.25
2023-02-16T13:39:37.376Z,71.27
2023-02-16T13:40:51.952Z,71.47
2023-02-16T13:41:57.324Z,71.30
2023-02-16T13:43:16.301Z,71.32
2023-02-16T13:44:21.683Z,70.49
2023-02-16T13:45:28.223Z,71.49
2023-02-16T13:46:32.986Z,70.93
2023-02-16T13:47:37.838Z,70.94
2023-02-16T13:48:48.545Z,70.78
2023-02-16T13:49:52.676Z,70.43
2023-02-16T13:50:57.264Z,70.97
2023-02-16T13:52:00.004Z,70.27
2023-02-16T13:53:11.590Z,70.56
2023-02-16T13:54:23.951Z,71.05
2023-02-16T13:55:34.991Z,70.55
2023-02-16T13:56:38.780Z,70.73
2023-02-16T13:57:50.582Z,70.31
2023-02-16T13:58:54.662Z,70.58
2023-02-16T14:00:01.828Z,71.07
2023-02-16T14:01:11.224Z,70.79
2023-02-16T14:02:16.661Z,70.90
2023-02-16T14:03:23.091Z,71.18
2023-02-16T14:04:28.340Z,71.46
2023-02-16T14:05:35.436Z,70.70
2023-02-16T14:06:40.516Z,70.95
2023-02-16T14:07:49.655Z,71.27
2023-02-16T14:09:13.863Z,71.78
2023-02-16T14:10:17.867Z,71.89
2023-02-16T14:11:20.652Z,72.08
2023-02-16T14:12:28.018Z,72.17
2023-02-16T14:13:41.837Z,72.55
2023-02-16T14:14:48.667Z,73.05
2023-02-16T14:15:56.345Z,72.27
2023-02-16T14:17:17.440Z,72.15
2023-02-16T14:18:21.771Z,72.79
2023-02-16T14:19:26.666Z,72.62
2023-02-16T14:20:31.626Z,72.74
2023-02-16T14:21:36.579Z,72.89
2023-02-16T14:22:48.022Z,73.19
2023-02-16T14:23:55.287Z,74.17
2023-02-16T14:25:00.985Z,74.79